sensor_id;sensor_type;location;lat;lon;timestamp;pressure;altitude;pressure_sealevel;temperature
13570;BMP180;6856;51.460;7.158;2024-02-16T00:02:16;99894.00;;;17.30
13570;BMP180;6856;51.460;7.158;2024-02-16T00:04:53;99878.00;;;17.30
13570;BMP180;6856;51.460;7.158;2024-02-16T00:07:29;99887.00;;;17.30
13570;BMP180;6856;51.460;7.158;2024-02-16T00:10:03;99879.00;;;17.30
13570;BMP180;6856;51.460;7.158;2024-02-16T00:12:38;99890.00;;;17.30
13570;BMP180;6856;51.460;7.158;2024-02-16T00:15:12;99883.00;;;17.30
13570;BMP180;6856;51.460;7.158;2024-02-16T00:17:46;99874.00;;;17.30
13570;BMP180;6856;51.460;7.158;2024-02-16T00:20:21;99890.00;;;17.30
13570;BMP180;6856;51.460;7.158;2024-02-16T00:22:57;99885.00;;;17.40
13570;BMP180;6856;51.460;7.158;2024-02-16T00:25:32;99892.00;;;17.40
13570;BMP180;6856;51.460;7.158;2024-02-16T00:28:07;99888.00;;;17.40
13570;BMP180;6856;51.460;7.158;2024-02-16T00:30:42;99893.00;;;17.40
13570;BMP180;6856;51.460;7.158;2024-02-16T00:33:16;99892.00;;;17.40
13570;BMP180;6856;51.460;7.158;2024-02-16T00:35:51;99901.00;;;17.40
13570;BMP180;6856;51.460;7.158;2024-02-16T00:38:27;99897.00;;;17.40
13570;BMP180;6856;51.460;7.158;2024-02-16T00:41:00;99894.00;;;17.40
13570;BMP180;6856;51.460;7.158;2024-02-16T00:43:34;99896.00;;;17.40
13570;BMP180;6856;51.460;7.158;2024-02-16T00:46:08;99893.00;;;17.40
13570;BMP180;6856;51.460;7.158;2024-02-16T00:48:42;99895.00;;;17.40
13570;BMP180;6856;51.460;7.158;2024-02-16T00:51:16;99897.00;;;17.40
13570;BMP180;6856;51.460;7.158;2024-02-16T00:53:51;99896.00;;;17.40
13570;BMP180;6856;51.460;7.158;2024-02-16T00:56:25;99896.00;;;17.40
13570;BMP180;6856;51.460;7.158;2024-02-16T00:58:59;99898.00;;;17.40
13570;BMP180;6856;51.460;7.158;2024-02-16T01:01:34;99893.00;;;17.50
13570;BMP180;6856;51.460;7.158;2024-02-16T01:04:07;99893.00;;;17.50
13570;BMP180;6856;51.460;7.158;2024-02-16T01:06:42;99902.00;;;17.50
13570;BMP180;6856;51.460;7.158;2024-02-16T01:09:17;99902.00;;;17.50
13570;BMP180;6856;51.460;7.158;2024-02-16T01:11:51;99906.00;;;17.50
13570;BMP180;6856;51.460;7.158;2024-02-16T01:14:25;99897.00;;;17.50
13570;BMP180;6856;51.460;7.158;2024-02-16T01:16:59;99901.00;;;17.50
13570;BMP180;6856;51.460;7.158;2024-02-16T01:19:33;99893.00;;;17.50
13570;BMP180;6856;51.460;7.158;2024-02-16T01:22:07;99896.00;;;17.50
13570;BMP180;6856;51.460;7.158;2024-02-16T01:24:42;99897.00;;;17.50
13570;BMP180;6856;51.460;7.158;2024-02-16T01:27:16;99881.00;;;17.50
13570;BMP180;6856;51.460;7.158;2024-02-16T01:29:50;99893.00;;;17.50
13570;BMP180;6856;51.460;7.158;2024-02-16T01:32:24;99893.00;;;17.50
13570;BMP180;6856;51.460;7.158;2024-02-16T01:34:57;99865.00;;;17.50
13570;BMP180;6856;51.460;7.158;2024-02-16T01:37:31;99886.00;;;17.50
13570;BMP180;6856;51.460;7.158;2024-02-16T01:40:09;99888.00;;;17.50
13570;BMP180;6856;51.460;7.158;2024-02-16T01:42:47;99883.00;;;17.50
13570;BMP180;6856;51.460;7.158;2024-02-16T01:45:21;99883.00;;;17.50
13570;BMP180;6856;51.460;7.158;2024-02-16T01:47:57;99871.00;;;17.50
13570;BMP180;6856;51.460;7.158;2024-02-16T01:50:32;99854.00;;;17.50
13570;BMP180;6856;51.460;7.158;2024-02-16T01:53:11;99871.00;;;17.50
13570;BMP180;6856;51.460;7.158;2024-02-16T01:55:48;99869.00;;;17.50
13570;BMP180;6856;51.460;7.158;2024-02-16T01:58:22;99875.00;;;17.50
13570;BMP180;6856;51.460;7.158;2024-02-16T02:00:56;99862.00;;;17.50
13570;BMP180;6856;51.460;7.158;2024-02-16T02:03:30;99860.00;;;17.50
13570;BMP180;6856;51.460;7.158;2024-02-16T02:06:04;99858.00;;;17.50
13570;BMP180;6856;51.460;7.158;2024-02-16T02:08:38;99849.00;;;17.50
13570;BMP180;6856;51.460;7.158;2024-02-16T02:11:15;99858.00;;;17.50
13570;BMP180;6856;51.460;7.158;2024-02-16T02:13:49;99850.00;;;17.50
13570;BMP180;6856;51.460;7.158;2024-02-16T02:16:23;99855.00;;;17.50
13570;BMP180;6856;51.460;7.158;2024-02-16T02:18:59;99864.00;;;17.50
13570;BMP180;6856;51.460;7.158;2024-02-16T02:21:33;99852.00;;;17.50
13570;BMP180;6856;51.460;7.158;2024-02-16T02:24:09;99860.00;;;17.50
13570;BMP180;6856;51.460;7.158;2024-02-16T02:26:43;99860.00;;;17.50
13570;BMP180;6856;51.460;7.158;2024-02-16T02:29:17;99853.00;;;17.50
13570;BMP180;6856;51.460;7.158;2024-02-16T02:31:52;99843.00;;;17.50
13570;BMP180;6856;51.460;7.158;2024-02-16T02:34:28;99844.00;;;17.50
13570;BMP180;6856;51.460;7.158;2024-02-16T02:37:02;99851.00;;;17.50
13570;BMP180;6856;51.460;7.158;2024-02-16T02:39:38;99835.00;;;17.50
13570;BMP180;6856;51.460;7.158;2024-02-16T02:42:12;99835.00;;;17.50
13570;BMP180;6856;51.460;7.158;2024-02-16T02:44:46;99826.00;;;17.50
13570;BMP180;6856;51.460;7.158;2024-02-16T02:47:22;99824.00;;;17.50
13570;BMP180;6856;51.460;7.158;2024-02-16T02:49:56;99846.00;;;17.50
13570;BMP180;6856;51.460;7.158;2024-02-16T02:52:29;99849.00;;;17.50
13570;BMP180;6856;51.460;7.158;2024-02-16T02:55:06;99855.00;;;17.50
13570;BMP180;6856;51.460;7.158;2024-02-16T02:57:42;99850.00;;;17.50
13570;BMP180;6856;51.460;7.158;2024-02-16T03:00:17;99837.00;;;17.50
13570;BMP180;6856;51.460;7.158;2024-02-16T03:02:51;99827.00;;;17.50
13570;BMP180;6856;51.460;7.158;2024-02-16T03:05:26;99839.00;;;17.50
13570;BMP180;6856;51.460;7.158;2024-02-16T03:08:00;99829.00;;;17.50
13570;BMP180;6856;51.460;7.158;2024-02-16T03:10:36;99824.00;;;17.50
13570;BMP180;6856;51.460;7.158;2024-02-16T03:13:11;99825.00;;;17.50
13570;BMP180;6856;51.460;7.158;2024-02-16T03:15:46;99826.00;;;17.50
13570;BMP180;6856;51.460;7.158;2024-02-16T03:18:20;99824.00;;;17.50
13570;BMP180;6856;51.460;7.158;2024-02-16T03:20:54;99825.00;;;17.50
13570;BMP180;6856;51.460;7.158;2024-02-16T03:23:30;99826.00;;;17.50
13570;BMP180;6856;51.460;7.158;2024-02-16T03:26:14;99805.00;;;17.50
13570;BMP180;6856;51.460;7.158;2024-02-16T03:28:48;99807.00;;;17.50
13570;BMP180;6856;51.460;7.158;2024-02-16T03:31:24;99810.00;;;17.50
13570;BMP180;6856;51.460;7.158;2024-02-16T03:33:59;99809.00;;;17.50
13570;BMP180;6856;51.460;7.158;2024-02-16T03:36:33;99805.00;;;17.50
13570;BMP180;6856;51.460;7.158;2024-02-16T03:39:08;99798.00;;;17.50
13570;BMP180;6856;51.460;7.158;2024-02-16T03:41:44;99790.00;;;17.50
13570;BMP180;6856;51.460;7.158;2024-02-16T03:44:21;99811.00;;;17.50
13570;BMP180;6856;51.460;7.158;2024-02-16T03:46:54;99819.00;;;17.50
13570;BMP180;6856;51.460;7.158;2024-02-16T03:49:28;99818.00;;;17.50
13570;BMP180;6856;51.460;7.158;2024-02-16T03:52:04;99822.00;;;17.50
13570;BMP180;6856;51.460;7.158;2024-02-16T03:54:40;99823.00;;;17.50
13570;BMP180;6856;51.460;7.158;2024-02-16T03:57:19;99813.00;;;17.50
13570;BMP180;6856;51.460;7.158;2024-02-16T03:59:52;99812.00;;;17.50
13570;BMP180;6856;51.460;7.158;2024-02-16T04:02:27;99826.00;;;17.50
13570;BMP180;6856;51.460;7.158;2024-02-16T04:05:02;99825.00;;;17.50
13570;BMP180;6856;51.460;7.158;2024-02-16T04:07:36;99818.00;;;17.50
13570;BMP180;6856;51.460;7.158;2024-02-16T04:10:11;99809.00;;;17.40
13570;BMP180;6856;51.460;7.158;2024-02-16T04:12:46;99784.00;;;17.40
13570;BMP180;6856;51.460;7.158;2024-02-16T04:15:20;99817.00;;;17.40
13570;BMP180;6856;51.460;7.158;2024-02-16T04:17:54;99824.00;;;17.40
13570;BMP180;6856;51.460;7.158;2024-02-16T04:20:28;99804.00;;;17.40
13570;BMP180;6856;51.460;7.158;2024-02-16T04:23:01;99807.00;;;17.40
13570;BMP180;6856;51.460;7.158;2024-02-16T04:25:35;99805.00;;;17.40
13570;BMP180;6856;51.460;7.158;2024-02-16T04:28:11;99809.00;;;17.40
13570;BMP180;6856;51.460;7.158;2024-02-16T04:30:46;99818.00;;;17.40
13570;BMP180;6856;51.460;7.158;2024-02-16T04:33:20;99810.00;;;17.40
13570;BMP180;6856;51.460;7.158;2024-02-16T04:35:54;99804.00;;;17.40
13570;BMP180;6856;51.460;7.158;2024-02-16T04:38:28;99811.00;;;17.40
13570;BMP180;6856;51.460;7.158;2024-02-16T04:41:04;99807.00;;;17.40
13570;BMP180;6856;51.460;7.158;2024-02-16T04:43:41;99813.00;;;17.40
13570;BMP180;6856;51.460;7.158;2024-02-16T04:46:16;99818.00;;;17.40
13570;BMP180;6856;51.460;7.158;2024-02-16T04:48:50;99813.00;;;17.40
13570;BMP180;6856;51.460;7.158;2024-02-16T04:51:24;99823.00;;;17.40
13570;BMP180;6856;51.460;7.158;2024-02-16T04:53:59;99825.00;;;17.40
13570;BMP180;6856;51.460;7.158;2024-02-16T04:56:34;99833.00;;;17.40
13570;BMP180;6856;51.460;7.158;2024-02-16T04:59:09;99834.00;;;17.40
13570;BMP180;6856;51.460;7.158;2024-02-16T05:01:43;99820.00;;;17.30
13570;BMP180;6856;51.460;7.158;2024-02-16T05:04:18;99825.00;;;17.30
13570;BMP180;6856;51.460;7.158;2024-02-16T05:06:52;99820.00;;;17.40
13570;BMP180;6856;51.460;7.158;2024-02-16T05:09:32;99827.00;;;17.30
13570;BMP180;6856;51.460;7.158;2024-02-16T05:12:08;99827.00;;;17.30
13570;BMP180;6856;51.460;7.158;2024-02-16T05:14:49;99826.00;;;17.30
13570;BMP180;6856;51.460;7.158;2024-02-16T05:17:24;99831.00;;;17.40
13570;BMP180;6856;51.460;7.158;2024-02-16T05:20:00;99841.00;;;17.40
13570;BMP180;6856;51.460;7.158;2024-02-16T05:22:34;99836.00;;;17.40
13570;BMP180;6856;51.460;7.158;2024-02-16T05:25:08;99835.00;;;17.40
13570;BMP180;6856;51.460;7.158;2024-02-16T05:27:43;99837.00;;;17.40
13570;BMP180;6856;51.460;7.158;2024-02-16T05:30:18;99846.00;;;17.30
13570;BMP180;6856;51.460;7.158;2024-02-16T05:32:52;99838.00;;;17.40
13570;BMP180;6856;51.460;7.158;2024-02-16T05:35:31;99837.00;;;17.40
13570;BMP180;6856;51.460;7.158;2024-02-16T05:38:07;99843.00;;;17.30
13570;BMP180;6856;51.460;7.158;2024-02-16T05:40:53;99836.00;;;17.30
13570;BMP180;6856;51.460;7.158;2024-02-16T05:43:29;99808.00;;;17.30
13570;BMP180;6856;51.460;7.158;2024-02-16T05:46:05;99831.00;;;17.30
13570;BMP180;6856;51.460;7.158;2024-02-16T05:48:39;99836.00;;;17.30
13570;BMP180;6856;51.460;7.158;2024-02-16T05:51:13;99838.00;;;17.30
13570;BMP180;6856;51.460;7.158;2024-02-16T05:53:48;99835.00;;;17.30
13570;BMP180;6856;51.460;7.158;2024-02-16T05:56:23;99846.00;;;17.30
13570;BMP180;6856;51.460;7.158;2024-02-16T05:58:56;99836.00;;;17.30
13570;BMP180;6856;51.460;7.158;2024-02-16T06:01:32;99839.00;;;17.30
13570;BMP180;6856;51.460;7.158;2024-02-16T06:04:07;99846.00;;;17.30
13570;BMP180;6856;51.460;7.158;2024-02-16T06:06:40;99847.00;;;17.30
13570;BMP180;6856;51.460;7.158;2024-02-16T06:09:14;99841.00;;;17.30
13570;BMP180;6856;51.460;7.158;2024-02-16T06:11:49;99835.00;;;17.30
13570;BMP180;6856;51.460;7.158;2024-02-16T06:14:23;99828.00;;;17.20
13570;BMP180;6856;51.460;7.158;2024-02-16T06:16:59;99837.00;;;17.30
13570;BMP180;6856;51.460;7.158;2024-02-16T06:19:33;99833.00;;;17.20
13570;BMP180;6856;51.460;7.158;2024-02-16T06:22:07;99833.00;;;17.30
13570;BMP180;6856;51.460;7.158;2024-02-16T06:24:41;99839.00;;;17.20
13570;BMP180;6856;51.460;7.158;2024-02-16T06:27:18;99846.00;;;17.20
13570;BMP180;6856;51.460;7.158;2024-02-16T06:29:52;99848.00;;;17.20
13570;BMP180;6856;51.460;7.158;2024-02-16T06:32:27;99861.00;;;17.20
13570;BMP180;6856;51.460;7.158;2024-02-16T06:35:02;99860.00;;;17.20
13570;BMP180;6856;51.460;7.158;2024-02-16T06:37:38;99853.00;;;17.20
13570;BMP180;6856;51.460;7.158;2024-02-16T06:40:13;99853.00;;;17.20
13570;BMP180;6856;51.460;7.158;2024-02-16T06:42:49;99860.00;;;17.20
13570;BMP180;6856;51.460;7.158;2024-02-16T06:45:24;99855.00;;;17.20
13570;BMP180;6856;51.460;7.158;2024-02-16T06:48:01;99854.00;;;17.20
13570;BMP180;6856;51.460;7.158;2024-02-16T06:50:35;99848.00;;;17.20
13570;BMP180;6856;51.460;7.158;2024-02-16T06:53:10;99844.00;;;17.20
13570;BMP180;6856;51.460;7.158;2024-02-16T06:55:44;99856.00;;;17.20
13570;BMP180;6856;51.460;7.158;2024-02-16T06:58:17;99851.00;;;17.20
13570;BMP180;6856;51.460;7.158;2024-02-16T07:00:52;99848.00;;;17.20
13570;BMP180;6856;51.460;7.158;2024-02-16T07:03:27;99855.00;;;17.20
13570;BMP180;6856;51.460;7.158;2024-02-16T07:06:01;99862.00;;;17.20
13570;BMP180;6856;51.460;7.158;2024-02-16T07:08:36;99863.00;;;17.20
13570;BMP180;6856;51.460;7.158;2024-02-16T07:11:11;99874.00;;;17.20
13570;BMP180;6856;51.460;7.158;2024-02-16T07:13:45;99886.00;;;17.20
13570;BMP180;6856;51.460;7.158;2024-02-16T07:16:19;99887.00;;;17.20
13570;BMP180;6856;51.460;7.158;2024-02-16T07:18:54;99885.00;;;17.20
13570;BMP180;6856;51.460;7.158;2024-02-16T07:21:29;99880.00;;;17.20
13570;BMP180;6856;51.460;7.158;2024-02-16T07:24:04;99898.00;;;17.20
13570;BMP180;6856;51.460;7.158;2024-02-16T07:26:38;99902.00;;;17.20
13570;BMP180;6856;51.460;7.158;2024-02-16T07:29:13;99904.00;;;17.20
13570;BMP180;6856;51.460;7.158;2024-02-16T07:31:49;99908.00;;;17.20
13570;BMP180;6856;51.460;7.158;2024-02-16T07:34:25;99924.00;;;17.30
13570;BMP180;6856;51.460;7.158;2024-02-16T07:37:00;99931.00;;;17.30
13570;BMP180;6856;51.460;7.158;2024-02-16T07:39:34;99931.00;;;17.30
13570;BMP180;6856;51.460;7.158;2024-02-16T07:42:08;99922.00;;;17.30
13570;BMP180;6856;51.460;7.158;2024-02-16T07:44:45;99931.00;;;17.30
13570;BMP180;6856;51.460;7.158;2024-02-16T07:47:19;99943.00;;;17.30
13570;BMP180;6856;51.460;7.158;2024-02-16T07:49:55;99936.00;;;17.30
13570;BMP180;6856;51.460;7.158;2024-02-16T07:52:29;99938.00;;;17.30
13570;BMP180;6856;51.460;7.158;2024-02-16T07:55:03;99922.00;;;17.30
13570;BMP180;6856;51.460;7.158;2024-02-16T07:57:37;99945.00;;;17.40
13570;BMP180;6856;51.460;7.158;2024-02-16T08:00:14;99943.00;;;17.40
13570;BMP180;6856;51.460;7.158;2024-02-16T08:02:50;99943.00;;;17.40
13570;BMP180;6856;51.460;7.158;2024-02-16T08:05:26;99943.00;;;17.40
13570;BMP180;6856;51.460;7.158;2024-02-16T08:08:02;99955.00;;;17.40
13570;BMP180;6856;51.460;7.158;2024-02-16T08:10:37;99962.00;;;17.40
13570;BMP180;6856;51.460;7.158;2024-02-16T08:13:11;99964.00;;;17.40
13570;BMP180;6856;51.460;7.158;2024-02-16T08:15:44;99967.00;;;17.50
13570;BMP180;6856;51.460;7.158;2024-02-16T08:18:19;99966.00;;;17.50
13570;BMP180;6856;51.460;7.158;2024-02-16T08:20:56;99970.00;;;17.50
13570;BMP180;6856;51.460;7.158;2024-02-16T08:23:30;99978.00;;;17.50
13570;BMP180;6856;51.460;7.158;2024-02-16T08:26:04;99970.00;;;17.50
13570;BMP180;6856;51.460;7.158;2024-02-16T08:28:38;99981.00;;;17.50
13570;BMP180;6856;51.460;7.158;2024-02-16T08:31:15;99983.00;;;17.50
13570;BMP180;6856;51.460;7.158;2024-02-16T08:33:50;99982.00;;;17.60
13570;BMP180;6856;51.460;7.158;2024-02-16T08:36:26;99986.00;;;17.60
13570;BMP180;6856;51.460;7.158;2024-02-16T08:39:03;99986.00;;;17.60
13570;BMP180;6856;51.460;7.158;2024-02-16T08:41:38;99988.00;;;17.60
13570;BMP180;6856;51.460;7.158;2024-02-16T08:44:12;99996.00;;;17.60
13570;BMP180;6856;51.460;7.158;2024-02-16T08:46:46;99976.00;;;17.70
13570;BMP180;6856;51.460;7.158;2024-02-16T08:49:21;99995.00;;;17.70
13570;BMP180;6856;51.460;7.158;2024-02-16T08:51:56;99997.00;;;17.70
13570;BMP180;6856;51.460;7.158;2024-02-16T08:54:29;99992.00;;;17.70
13570;BMP180;6856;51.460;7.158;2024-02-16T08:57:03;100004.00;;;17.70
13570;BMP180;6856;51.460;7.158;2024-02-16T08:59:38;100005.00;;;17.70
13570;BMP180;6856;51.460;7.158;2024-02-16T09:02:12;100010.00;;;17.80
13570;BMP180;6856;51.460;7.158;2024-02-16T09:04:46;100016.00;;;17.80
13570;BMP180;6856;51.460;7.158;2024-02-16T09:07:21;100009.00;;;17.80
13570;BMP180;6856;51.460;7.158;2024-02-16T09:09:58;100008.00;;;17.80
13570;BMP180;6856;51.460;7.158;2024-02-16T09:12:32;100012.00;;;17.80
13570;BMP180;6856;51.460;7.158;2024-02-16T09:15:07;100021.00;;;17.80
13570;BMP180;6856;51.460;7.158;2024-02-16T09:17:42;100022.00;;;17.90
13570;BMP180;6856;51.460;7.158;2024-02-16T09:20:15;100017.00;;;17.80
13570;BMP180;6856;51.460;7.158;2024-02-16T09:22:56;100021.00;;;17.90
13570;BMP180;6856;51.460;7.158;2024-02-16T09:25:34;100022.00;;;17.90
13570;BMP180;6856;51.460;7.158;2024-02-16T09:28:09;100018.00;;;17.90
13570;BMP180;6856;51.460;7.158;2024-02-16T09:30:52;100022.00;;;18.00
13570;BMP180;6856;51.460;7.158;2024-02-16T09:33:28;100019.00;;;18.00
13570;BMP180;6856;51.460;7.158;2024-02-16T09:36:06;100033.00;;;18.00
13570;BMP180;6856;51.460;7.158;2024-02-16T09:38:41;100036.00;;;18.00
13570;BMP180;6856;51.460;7.158;2024-02-16T09:41:15;100040.00;;;18.10
13570;BMP180;6856;51.460;7.158;2024-02-16T09:43:51;100046.00;;;18.10
13570;BMP180;6856;51.460;7.158;2024-02-16T09:46:28;100059.00;;;18.10
13570;BMP180;6856;51.460;7.158;2024-02-16T09:49:04;100059.00;;;18.10
13570;BMP180;6856;51.460;7.158;2024-02-16T09:51:39;100053.00;;;18.20
13570;BMP180;6856;51.460;7.158;2024-02-16T09:54:14;100062.00;;;18.20
13570;BMP180;6856;51.460;7.158;2024-02-16T09:56:49;100069.00;;;18.20
13570;BMP180;6856;51.460;7.158;2024-02-16T09:59:22;100070.00;;;18.20
13570;BMP180;6856;51.460;7.158;2024-02-16T10:02:00;100068.00;;;18.30
13570;BMP180;6856;51.460;7.158;2024-02-16T10:04:35;100078.00;;;18.30
13570;BMP180;6856;51.460;7.158;2024-02-16T10:07:09;100080.00;;;18.30
13570;BMP180;6856;51.460;7.158;2024-02-16T10:09:46;100086.00;;;18.30
13570;BMP180;6856;51.460;7.158;2024-02-16T10:12:20;100081.00;;;18.40
13570;BMP180;6856;51.460;7.158;2024-02-16T10:14:55;100085.00;;;18.40
13570;BMP180;6856;51.460;7.158;2024-02-16T10:17:32;100076.00;;;18.40
13570;BMP180;6856;51.460;7.158;2024-02-16T10:20:09;100081.00;;;18.50
13570;BMP180;6856;51.460;7.158;2024-02-16T10:22:43;100098.00;;;18.50
13570;BMP180;6856;51.460;7.158;2024-02-16T10:25:22;100102.00;;;18.50
13570;BMP180;6856;51.460;7.158;2024-02-16T10:28:05;100115.00;;;18.50
13570;BMP180;6856;51.460;7.158;2024-02-16T10:30:43;100118.00;;;18.50
13570;BMP180;6856;51.460;7.158;2024-02-16T10:33:21;100115.00;;;18.50
13570;BMP180;6856;51.460;7.158;2024-02-16T10:35:56;100110.00;;;18.50
13570;BMP180;6856;51.460;7.158;2024-02-16T10:38:31;100129.00;;;18.50
13570;BMP180;6856;51.460;7.158;2024-02-16T10:41:09;100134.00;;;18.50
13570;BMP180;6856;51.460;7.158;2024-02-16T10:43:43;100127.00;;;18.50
13570;BMP180;6856;51.460;7.158;2024-02-16T10:46:22;100122.00;;;18.60
13570;BMP180;6856;51.460;7.158;2024-02-16T10:48:55;100134.00;;;18.60
13570;BMP180;6856;51.460;7.158;2024-02-16T10:51:36;100140.00;;;18.60
13570;BMP180;6856;51.460;7.158;2024-02-16T10:54:18;100132.00;;;18.60
13570;BMP180;6856;51.460;7.158;2024-02-16T10:56:55;100129.00;;;18.60
13570;BMP180;6856;51.460;7.158;2024-02-16T10:59:41;100148.00;;;18.70
13570;BMP180;6856;51.460;7.158;2024-02-16T11:02:16;100152.00;;;18.70
13570;BMP180;6856;51.460;7.158;2024-02-16T11:04:52;100148.00;;;18.70
13570;BMP180;6856;51.460;7.158;2024-02-16T11:07:27;100154.00;;;18.70
13570;BMP180;6856;51.460;7.158;2024-02-16T11:10:03;100155.00;;;18.80
13570;BMP180;6856;51.460;7.158;2024-02-16T11:12:44;100152.00;;;18.70
13570;BMP180;6856;51.460;7.158;2024-02-16T11:15:28;100169.00;;;18.80
13570;BMP180;6856;51.460;7.158;2024-02-16T11:18:03;100164.00;;;18.80
13570;BMP180;6856;51.460;7.158;2024-02-16T11:20:38;100164.00;;;18.80
13570;BMP180;6856;51.460;7.158;2024-02-16T11:23:16;100156.00;;;18.80
13570;BMP180;6856;51.460;7.158;2024-02-16T11:25:50;100149.00;;;18.80
13570;BMP180;6856;51.460;7.158;2024-02-16T11:28:27;100172.00;;;18.80
13570;BMP180;6856;51.460;7.158;2024-02-16T11:31:05;100169.00;;;18.60
13570;BMP180;6856;51.460;7.158;2024-02-16T11:33:45;100174.00;;;18.80
13570;BMP180;6856;51.460;7.158;2024-02-16T11:36:19;100173.00;;;18.80
13570;BMP180;6856;51.460;7.158;2024-02-16T11:38:53;100176.00;;;18.80
13570;BMP180;6856;51.460;7.158;2024-02-16T11:41:28;100172.00;;;18.80
13570;BMP180;6856;51.460;7.158;2024-02-16T11:44:08;100175.00;;;18.80
13570;BMP180;6856;51.460;7.158;2024-02-16T11:46:43;100177.00;;;18.80
13570;BMP180;6856;51.460;7.158;2024-02-16T11:49:20;100176.00;;;18.80
13570;BMP180;6856;51.460;7.158;2024-02-16T11:51:54;100181.00;;;18.80
13570;BMP180;6856;51.460;7.158;2024-02-16T11:54:28;100176.00;;;18.70
13570;BMP180;6856;51.460;7.158;2024-02-16T11:57:04;100178.00;;;18.70
13570;BMP180;6856;51.460;7.158;2024-02-16T11:59:40;100184.00;;;18.70
13570;BMP180;6856;51.460;7.158;2024-02-16T12:02:17;100190.00;;;18.70
13570;BMP180;6856;51.460;7.158;2024-02-16T12:04:59;100186.00;;;18.70
13570;BMP180;6856;51.460;7.158;2024-02-16T12:07:37;100181.00;;;18.70
13570;BMP180;6856;51.460;7.158;2024-02-16T12:10:14;100180.00;;;18.70
13570;BMP180;6856;51.460;7.158;2024-02-16T12:12:48;100176.00;;;18.70
13570;BMP180;6856;51.460;7.158;2024-02-16T12:15:24;100192.00;;;18.70
13570;BMP180;6856;51.460;7.158;2024-02-16T12:18:00;100176.00;;;18.70
13570;BMP180;6856;51.460;7.158;2024-02-16T12:20:36;100179.00;;;18.70
13570;BMP180;6856;51.460;7.158;2024-02-16T12:23:13;100062.00;;;18.70
13570;BMP180;6856;51.460;7.158;2024-02-16T12:25:47;100184.00;;;18.70
13570;BMP180;6856;51.460;7.158;2024-02-16T12:28:25;100182.00;;;18.70
13570;BMP180;6856;51.460;7.158;2024-02-16T12:31:01;100168.00;;;18.70
13570;BMP180;6856;51.460;7.158;2024-02-16T12:33:35;100194.00;;;18.70
13570;BMP180;6856;51.460;7.158;2024-02-16T12:36:11;100139.00;;;18.70
13570;BMP180;6856;51.460;7.158;2024-02-16T12:38:44;100197.00;;;18.70
13570;BMP180;6856;51.460;7.158;2024-02-16T12:41:19;100198.00;;;18.70
13570;BMP180;6856;51.460;7.158;2024-02-16T12:43:53;100195.00;;;18.70
13570;BMP180;6856;51.460;7.158;2024-02-16T12:46:29;100203.00;;;18.70
13570;BMP180;6856;51.460;7.158;2024-02-16T12:49:02;100208.00;;;18.70
13570;BMP180;6856;51.460;7.158;2024-02-16T12:51:38;100215.00;;;18.70
13570;BMP180;6856;51.460;7.158;2024-02-16T12:54:12;100214.00;;;18.70
13570;BMP180;6856;51.460;7.158;2024-02-16T12:56:49;100225.00;;;18.60
13570;BMP180;6856;51.460;7.158;2024-02-16T12:59:24;100213.00;;;18.60
13570;BMP180;6856;51.460;7.158;2024-02-16T13:02:00;100219.00;;;18.60
13570;BMP180;6856;51.460;7.158;2024-02-16T13:04:35;100210.00;;;18.60
13570;BMP180;6856;51.460;7.158;2024-02-16T13:07:09;100223.00;;;18.60
13570;BMP180;6856;51.460;7.158;2024-02-16T13:09:43;100214.00;;;18.60
13570;BMP180;6856;51.460;7.158;2024-02-16T13:12:17;100223.00;;;18.60
13570;BMP180;6856;51.460;7.158;2024-02-16T13:14:52;100220.00;;;18.60
13570;BMP180;6856;51.460;7.158;2024-02-16T13:17:32;100221.00;;;18.60
13570;BMP180;6856;51.460;7.158;2024-02-16T13:20:08;100224.00;;;18.60
13570;BMP180;6856;51.460;7.158;2024-02-16T13:22:43;100225.00;;;18.50
13570;BMP180;6856;51.460;7.158;2024-02-16T13:25:20;100240.00;;;18.50
13570;BMP180;6856;51.460;7.158;2024-02-16T13:28:03;100240.00;;;18.50
13570;BMP180;6856;51.460;7.158;2024-02-16T13:30:40;100240.00;;;18.50
13570;BMP180;6856;51.460;7.158;2024-02-16T13:33:16;100253.00;;;18.50
13570;BMP180;6856;51.460;7.158;2024-02-16T13:35:51;100245.00;;;18.50
13570;BMP180;6856;51.460;7.158;2024-02-16T13:38:27;100252.00;;;18.50
13570;BMP180;6856;51.460;7.158;2024-02-16T13:41:02;100251.00;;;18.50
13570;BMP180;6856;51.460;7.158;2024-02-16T13:43:38;100266.00;;;18.50
13570;BMP180;6856;51.460;7.158;2024-02-16T13:46:14;100270.00;;;18.50
13570;BMP180;6856;51.460;7.158;2024-02-16T13:48:51;100274.00;;;18.40
13570;BMP180;6856;51.460;7.158;2024-02-16T13:51:25;100276.00;;;18.40
13570;BMP180;6856;51.460;7.158;2024-02-16T13:53:59;100279.00;;;18.40
13570;BMP180;6856;51.460;7.158;2024-02-16T13:56:36;100278.00;;;18.30
13570;BMP180;6856;51.460;7.158;2024-02-16T13:59:11;100280.00;;;18.30
13570;BMP180;6856;51.460;7.158;2024-02-16T14:01:48;100284.00;;;18.30
13570;BMP180;6856;51.460;7.158;2024-02-16T14:04:25;100300.00;;;18.20
13570;BMP180;6856;51.460;7.158;2024-02-16T14:06:59;100290.00;;;18.20
13570;BMP180;6856;51.460;7.158;2024-02-16T14:09:33;100288.00;;;18.20
13570;BMP180;6856;51.460;7.158;2024-02-16T14:12:07;100301.00;;;18.10
13570;BMP180;6856;51.460;7.158;2024-02-16T14:14:42;100303.00;;;18.10
13570;BMP180;6856;51.460;7.158;2024-02-16T14:17:16;100280.00;;;18.10
13570;BMP180;6856;51.460;7.158;2024-02-16T14:19:52;100300.00;;;18.10
13570;BMP180;6856;51.460;7.158;2024-02-16T14:22:26;100311.00;;;18.10
13570;BMP180;6856;51.460;7.158;2024-02-16T14:25:00;100317.00;;;18.00
13570;BMP180;6856;51.460;7.158;2024-02-16T14:27:35;100315.00;;;18.00
13570;BMP180;6856;51.460;7.158;2024-02-16T14:30:12;100320.00;;;18.00
13570;BMP180;6856;51.460;7.158;2024-02-16T14:32:46;100309.00;;;18.00
13570;BMP180;6856;51.460;7.158;2024-02-16T14:35:24;100332.00;;;18.00
13570;BMP180;6856;51.460;7.158;2024-02-16T14:37:58;100332.00;;;18.00
13570;BMP180;6856;51.460;7.158;2024-02-16T14:40:33;100335.00;;;17.90
13570;BMP180;6856;51.460;7.158;2024-02-16T14:43:06;100342.00;;;18.00
13570;BMP180;6856;51.460;7.158;2024-02-16T14:45:43;100341.00;;;18.00
13570;BMP180;6856;51.460;7.158;2024-02-16T14:48:17;100343.00;;;18.00
13570;BMP180;6856;51.460;7.158;2024-02-16T14:50:53;100351.00;;;18.00
13570;BMP180;6856;51.460;7.158;2024-02-16T14:53:27;100357.00;;;18.00
13570;BMP180;6856;51.460;7.158;2024-02-16T14:56:03;100359.00;;;18.00
13570;BMP180;6856;51.460;7.158;2024-02-16T14:58:37;100364.00;;;17.90
13570;BMP180;6856;51.460;7.158;2024-02-16T15:01:12;100363.00;;;18.00
13570;BMP180;6856;51.460;7.158;2024-02-16T15:03:46;100366.00;;;18.00